Time;durP1;ratioP1;P1;durP2;ratioP2;P2;SDS_P1;SDS_P2;PMS_P1;PMS_P2;Temp;Humidity;BMP_temperature;BMP_pressure;BME280_temperature;BME280_humidity;BME280_pressure;Samples;Min_cycle;Max_cycle;Signal;HPM_P1;HPM_P2
2022/12/14 00:00:31;;;;;;;32.20;16.73;;;-2.70;99.90;;;;;;5053826;28;20122;-70
2022/12/14 00:02:56;;;;;;;30.73;16.23;;;-2.80;99.90;;;;;;5054163;28;20036;-71
2022/12/14 00:05:22;;;;;;;32.97;17.60;;;-2.80;99.90;;;;;;5053757;28;20029;-70
2022/12/14 00:07:48;;;;;;;30.45;16.85;;;-2.80;99.90;;;;;;5053885;28;20052;-70
2022/12/14 00:10:13;;;;;;;28.95;16.25;;;-2.90;99.90;;;;;;5053511;28;20056;-70
2022/12/14 00:12:39;;;;;;;29.25;16.67;;;-2.90;99.90;;;;;;5053907;28;20465;-70
2022/12/14 00:15:05;;;;;;;27.33;15.88;;;-2.90;99.90;;;;;;5054008;28;20025;-70
2022/12/14 00:17:31;;;;;;;35.42;17.48;;;-2.80;99.90;;;;;;5053423;28;20025;-70
2022/12/14 00:19:57;;;;;;;30.00;16.58;;;-2.90;99.90;;;;;;5053435;28;20120;-70
2022/12/14 00:22:22;;;;;;;31.60;17.42;;;-2.80;99.90;;;;;;5053433;28;20025;-70
2022/12/14 00:24:48;;;;;;;35.50;17.95;;;-2.80;99.90;;;;;;5053680;28;20044;-70
2022/12/14 00:27:13;;;;;;;31.67;17.92;;;-2.90;99.90;;;;;;5052840;28;20025;-71
2022/12/14 00:29:39;;;;;;;32.92;17.35;;;-2.90;99.90;;;;;;5053619;28;20527;-69
2022/12/14 00:32:04;;;;;;;34.22;18.02;;;-2.90;99.90;;;;;;5053677;28;20032;-70
2022/12/14 00:34:30;;;;;;;33.55;17.70;;;-2.90;99.90;;;;;;5053030;28;20033;-72
2022/12/14 00:36:56;;;;;;;36.83;18.40;;;-2.90;99.90;;;;;;5051933;28;20405;-70
2022/12/14 00:39:22;;;;;;;27.83;16.88;;;-2.90;99.90;;;;;;5051805;28;20074;-71
2022/12/14 00:41:48;;;;;;;32.05;17.42;;;-2.90;99.90;;;;;;5053592;28;20103;-69
2022/12/14 00:44:14;;;;;;;30.90;17.42;;;-2.90;99.90;;;;;;5053303;28;20037;-70
2022/12/14 00:46:39;;;;;;;32.63;18.15;;;-2.90;99.90;;;;;;5052964;28;20086;-70
2022/12/14 00:49:05;;;;;;;29.50;17.35;;;-2.80;99.90;;;;;;5052894;28;20029;-70
2022/12/14 00:51:31;;;;;;;30.50;17.25;;;-2.80;99.90;;;;;;5051750;28;20570;-70
2022/12/14 00:53:56;;;;;;;35.00;18.27;;;-2.80;99.90;;;;;;5053404;28;20444;-69
2022/12/14 00:56:22;;;;;;;30.80;16.83;;;-2.90;99.90;;;;;;5052922;28;20112;-69
2022/12/14 00:58:52;;;;;;;31.52;16.48;;;-2.90;99.90;;;;;;5054359;28;20028;-70
2022/12/14 01:01:18;;;;;;;29.08;17.55;;;-2.90;99.90;;;;;;5054182;28;20437;-69
2022/12/14 01:03:43;;;;;;;30.77;17.25;;;-2.90;99.90;;;;;;5055149;28;20036;-70
2022/12/14 01:06:18;;;;;;;30.05;17.77;;;-2.90;99.90;;;;;;5055010;28;20450;-69
2022/12/14 01:08:44;;;;;;;32.75;16.73;;;-2.90;99.90;;;;;;5054633;28;20025;-69
2022/12/14 01:11:10;;;;;;;32.70;17.25;;;-3.00;99.90;;;;;;5054312;28;20427;-70
2022/12/14 01:13:37;;;;;;;30.95;16.73;;;-3.00;99.90;;;;;;5053491;28;20037;-70
2022/12/14 01:16:04;;;;;;;31.85;17.27;;;-3.00;99.90;;;;;;5052954;28;20033;-71
2022/12/14 01:18:33;;;;;;;32.85;16.98;;;-3.00;99.90;;;;;;5052350;28;20040;-70
2022/12/14 01:21:13;;;;;;;37.00;18.23;;;-3.10;99.90;;;;;;5052468;28;20025;-70
2022/12/14 01:23:39;;;;;;;31.73;18.05;;;-3.10;99.90;;;;;;5052684;28;20461;-70
2022/12/14 01:26:05;;;;;;;32.60;17.38;;;-3.10;99.90;;;;;;5052836;28;20180;-70
2022/12/14 01:28:30;;;;;;;31.90;17.95;;;-3.10;99.90;;;;;;5051457;28;20021;-70
2022/12/14 01:30:56;;;;;;;30.48;17.35;;;-3.10;99.90;;;;;;5052959;28;20033;-68
2022/12/14 01:33:22;;;;;;;36.03;18.90;;;-3.10;99.90;;;;;;5052095;28;20121;-69
2022/12/14 01:35:47;;;;;;;27.40;16.27;;;-3.10;99.90;;;;;;5051367;28;20103;-69
2022/12/14 01:38:13;;;;;;;33.25;18.80;;;-3.10;99.90;;;;;;5051590;28;20029;-70
2022/12/14 01:40:38;;;;;;;31.67;17.00;;;-3.10;99.90;;;;;;5051182;28;20517;-70
2022/12/14 01:43:12;;;;;;;31.77;17.23;;;-3.10;99.90;;;;;;5051527;28;20462;-70
2022/12/14 01:45:38;;;;;;;34.45;18.30;;;-3.00;99.90;;;;;;5051833;28;20116;-71
2022/12/14 01:48:07;;;;;;;32.67;18.23;;;-3.00;99.90;;;;;;5051949;28;20059;-70
2022/12/14 01:50:37;;;;;;;30.65;18.35;;;-2.90;99.90;;;;;;5051510;28;20021;-71
2022/12/14 01:53:11;;;;;;;34.80;17.58;;;-2.90;99.90;;;;;;5052005;28;20040;-70
2022/12/14 01:55:44;;;;;;;37.45;18.35;;;-2.80;99.90;;;;;;5052115;28;20025;-70
2022/12/14 01:58:21;;;;;;;31.33;18.00;;;-2.80;99.90;;;;;;5052310;28;20611;-71
2022/12/14 02:00:51;;;;;;;31.85;17.77;;;-2.70;99.90;;;;;;5051519;28;20021;-71
2022/12/14 02:03:24;;;;;;;32.35;17.30;;;-2.70;99.90;;;;;;5051120;28;20107;-71
2022/12/14 02:05:58;;;;;;;30.80;16.95;;;-2.60;99.90;;;;;;5051592;28;20017;-70
2022/12/14 02:08:25;;;;;;;31.95;16.80;;;-2.60;99.90;;;;;;5050938;28;20036;-70
2022/12/14 02:10:52;;;;;;;30.48;16.20;;;-2.50;99.90;;;;;;5051347;28;20424;-71
2022/12/14 02:13:29;;;;;;;31.50;17.08;;;-2.50;99.90;;;;;;5051169;28;20033;-69
2022/12/14 02:15:55;;;;;;;31.83;16.67;;;-2.50;99.90;;;;;;5052700;28;20094;-70
2022/12/14 02:18:24;;;;;;;35.22;17.38;;;-2.40;99.90;;;;;;5055229;28;20029;-69
2022/12/14 02:21:07;;;;;;;31.20;16.83;;;-2.40;99.90;;;;;;5055462;28;20104;-71
2022/12/14 02:24:05;;;;;;;31.95;17.17;;;-2.40;99.90;;;;;;5055626;28;20025;-70
2022/12/14 02:26:52;;;;;;;32.65;17.98;;;-2.40;99.90;;;;;;5046165;28;20112;-71
2022/12/14 02:29:31;;;;;;;32.10;17.65;;;-2.40;99.90;;;;;;5055659;28;20385;-72
2022/12/14 02:32:18;;;;;;;29.55;16.60;;;-2.40;99.90;;;;;;5056246;28;20060;-71
2022/12/14 02:34:56;;;;;;;34.10;17.58;;;-2.40;99.90;;;;;;5055760;28;20123;-70
2022/12/14 02:37:56;;;;;;;29.05;16.55;;;-2.40;99.90;;;;;;5055683;28;20053;-71
2022/12/14 02:40:34;;;;;;;37.63;18.10;;;-2.30;99.90;;;;;;5053419;28;20033;-71
2022/12/14 02:43:27;;;;;;;30.55;17.00;;;-2.30;99.90;;;;;;5055468;28;20366;-72
2022/12/14 02:45:56;;;;;;;29.00;17.60;;;-2.30;99.90;;;;;;5054664;28;20029;-70
2022/12/14 02:48:25;;;;;;;32.63;17.13;;;-2.30;99.90;;;;;;5054450;28;20032;-70
2022/12/14 02:51:05;;;;;;;32.13;17.17;;;-2.30;99.90;;;;;;5054531;28;20032;-70
2022/12/14 02:53:43;;;;;;;26.23;16.15;;;-2.30;99.90;;;;;;5054574;28;20036;-70
2022/12/14 02:56:13;;;;;;;30.52;17.08;;;-2.20;99.90;;;;;;5055562;28;20047;-70
2022/12/14 02:58:42;;;;;;;29.95;16.27;;;-2.20;99.90;;;;;;5055012;28;20029;-71
2022/12/14 03:01:12;;;;;;;34.22;17.15;;;-2.20;99.90;;;;;;5055139;28;20025;-70
2022/12/14 03:03:39;;;;;;;33.33;17.42;;;-2.20;99.90;;;;;;5055117;28;20884;-69
2022/12/14 03:06:14;;;;;;;31.00;17.00;;;-2.10;99.90;;;;;;5055300;28;20052;-70
2022/12/14 03:08:43;;;;;;;33.35;17.65;;;-2.10;99.90;;;;;;5055290;28;20465;-70
2022/12/14 03:11:13;;;;;;;30.50;17.67;;;-2.10;99.90;;;;;;5054939;28;20462;-70
2022/12/14 03:14:00;;;;;;;24.73;15.70;;;-2.10;99.90;;;;;;5054456;28;20064;-69
2022/12/14 03:16:35;;;;;;;33.95;17.95;;;-2.00;99.90;;;;;;5054587;28;20559;-69
2022/12/14 03:19:06;;;;;;;29.38;16.88;;;-2.00;99.90;;;;;;5054997;28;20066;-70
2022/12/14 03:21:40;;;;;;;28.63;17.50;;;-2.00;99.90;;;;;;5063292;28;20146;-70
2022/12/14 03:24:13;;;;;;;34.95;18.50;;;-2.00;99.90;;;;;;5069043;28;20089;-70
2022/12/14 03:26:53;;;;;;;30.45;17.50;;;-1.90;99.90;;;;;;5054109;28;20021;-70
2022/12/14 03:29:30;;;;;;;29.55;16.35;;;-1.90;99.90;;;;;;5054666;28;20465;-70
2022/12/14 03:32:09;;;;;;;30.65;17.45;;;-1.90;99.90;;;;;;5055097;28;20029;-69
2022/12/14 03:34:39;;;;;;;33.15;17.58;;;-1.90;99.90;;;;;;5054394;28;20033;-69
2022/12/14 03:37:13;;;;;;;31.50;17.58;;;-1.80;99.90;;;;;;5055103;28;20100;-70
2022/12/14 03:39:41;;;;;;;34.05;17.33;;;-1.90;99.90;;;;;;5054302;28;20025;-70
2022/12/14 03:42:31;;;;;;;31.27;18.27;;;-1.80;99.90;;;;;;5054559;28;20025;-69
2022/12/14 03:45:05;;;;;;;34.83;19.05;;;-1.80;99.90;;;;;;5054933;28;20076;-69
2022/12/14 03:48:38;;;;;;;34.85;18.00;;;-1.80;99.90;;;;;;5054118;28;20033;-69
2022/12/14 03:51:04;;;;;;;36.83;18.90;;;-1.80;99.90;;;;;;5000588;28;20056;-70
2022/12/14 03:53:37;;;;;;;34.45;19.48;;;-1.80;99.90;;;;;;5045314;28;20045;-71
2022/12/14 03:56:21;;;;;;;34.75;17.85;;;-1.80;99.90;;;;;;5054381;28;20028;-69
2022/12/14 03:59:01;;;;;;;38.47;18.80;;;-1.80;99.90;;;;;;5053893;28;20029;-69
2022/12/14 04:01:38;;;;;;;35.05;18.52;;;-1.80;99.90;;;;;;5052627;28;20350;-69
2022/12/14 04:04:17;;;;;;;36.35;20.10;;;-1.80;99.90;;;;;;5054009;28;20040;-70
2022/12/14 04:06:58;;;;;;;34.75;17.17;;;-1.80;99.90;;;;;;5053662;28;20060;-70
2022/12/14 04:09:34;;;;;;;35.45;19.30;;;-1.70;99.90;;;;;;5053916;28;20100;-70
2022/12/14 04:20:38;;;;;;;33.40;18.20;;;-1.70;99.90;;;;;;5053620;28;20398;-71
2022/12/14 04:23:13;;;;;;;30.52;18.08;;;-1.60;99.90;;;;;;5054361;28;20087;-70
2022/12/14 04:31:29;;;;;;;30.48;18.13;;;-1.50;99.90;;;;;;5053236;28;20063;-70
2022/12/14 04:34:01;;;;;;;31.90;18.13;;;-1.50;99.90;;;;;;5053620;28;20330;-70
2022/12/14 04:36:43;;;;;;;34.05;17.55;;;-1.50;99.90;;;;;;5053115;28;20475;-70
2022/12/14 04:39:15;;;;;;;30.95;17.95;;;-1.50;99.90;;;;;;5053277;28;20100;-70
2022/12/14 04:41:47;;;;;;;30.15;17.52;;;-1.50;99.90;;;;;;5053258;28;20025;-70
2022/12/14 04:44:15;;;;;;;;;;;-1.50;99.90;;;;;;5054294;28;20431;-70
2022/12/14 04:46:42;;;;;;;30.17;16.88;;;-1.40;99.90;;;;;;5053140;28;19913;-70
2022/12/14 04:49:31;;;;;;;33.38;17.35;;;-1.40;99.90;;;;;;5053635;28;20037;-71
2022/12/14 04:52:00;;;;;;;33.80;18.25;;;-1.40;99.90;;;;;;5053348;28;20456;-70
2022/12/14 04:54:44;;;;;;;31.15;17.45;;;-1.40;99.90;;;;;;5052926;28;20032;-70
2022/12/14 04:57:48;;;;;;;33.63;19.42;;;-1.40;99.90;;;;;;5053609;28;20032;-69
2022/12/14 05:00:14;;;;;;;31.73;17.45;;;-1.40;99.90;;;;;;5051435;28;20436;-70
2022/12/14 05:02:46;;;;;;;32.67;18.27;;;-1.40;99.90;;;;;;5052798;28;20428;-70
2022/12/14 05:05:24;;;;;;;38.50;19.30;;;-1.40;99.90;;;;;;5053072;28;20104;-69
2022/12/14 05:08:16;;;;;;;29.38;17.83;;;-1.40;99.90;;;;;;5052398;28;20025;-70
2022/12/14 05:11:08;;;;;;;32.55;18.20;;;-1.40;99.90;;;;;;5052786;28;20432;-69
2022/12/14 05:13:54;;;;;;;30.58;17.75;;;-1.40;99.90;;;;;;5052424;28;20053;-70
2022/12/14 05:16:22;;;;;;;30.05;17.35;;;-1.40;99.90;;;;;;5052552;28;20482;-69
2022/12/14 05:18:48;;;;;;;29.05;16.42;;;-1.40;99.90;;;;;;5052477;28;20025;-69
2022/12/14 05:24:03;;;;;;;28.48;16.92;;;-1.40;99.90;;;;;;5052562;28;20040;-70
2022/12/14 05:26:29;;;;;;;36.13;17.17;;;-1.40;99.90;;;;;;5052463;28;20381;-70
2022/12/14 05:28:55;;;;;;;31.25;18.20;;;-1.40;99.90;;;;;;5052796;28;20376;-70
2022/12/14 05:31:22;;;;;;;30.30;18.45;;;-1.40;99.90;;;;;;5052167;28;20013;-70
2022/12/14 05:33:47;;;;;;;33.63;18.42;;;-1.40;99.90;;;;;;5051906;28;20033;-69
2022/12/14 05:36:13;;;;;;;31.70;17.73;;;-1.30;99.90;;;;;;5052311;28;20127;-69
2022/12/14 05:38:39;;;;;;;36.60;18.67;;;-1.40;99.90;;;;;;5052065;28;20029;-70
2022/12/14 05:41:05;;;;;;;31.00;17.20;;;-1.40;99.90;;;;;;5051916;28;20351;-69
2022/12/14 05:43:31;;;;;;;35.13;18.77;;;-1.40;99.90;;;;;;5052052;28;20043;-70
2022/12/14 05:45:58;;;;;;;32.05;18.00;;;-1.40;99.90;;;;;;5052131;28;20028;-70
2022/12/14 05:48:23;;;;;;;34.58;18.58;;;-1.30;99.90;;;;;;5052079;28;20021;-70
2022/12/14 05:50:50;;;;;;;32.33;18.05;;;-1.30;99.90;;;;;;5050945;28;20094;-69
2022/12/14 05:53:16;;;;;;;35.53;20.13;;;-1.30;99.90;;;;;;5051923;28;20087;-69
2022/12/14 05:55:49;;;;;;;33.20;18.73;;;-1.30;99.90;;;;;;5051930;28;20055;-69
2022/12/14 05:58:15;;;;;;;34.13;19.17;;;-1.30;99.90;;;;;;5052128;28;20029;-70
2022/12/14 06:00:40;;;;;;;34.03;18.88;;;-1.20;99.90;;;;;;5052074;28;20147;-71
2022/12/14 06:03:06;;;;;;;33.90;19.38;;;-1.20;99.90;;;;;;5052462;28;20029;-70
2022/12/14 06:05:32;;;;;;;35.47;18.13;;;-1.20;99.90;;;;;;5051574;28;20439;-70
2022/12/14 06:07:57;;;;;;;33.17;19.17;;;-1.20;99.90;;;;;;5052458;28;20384;-70
2022/12/14 06:10:23;;;;;;;33.28;18.30;;;-1.20;99.90;;;;;;5052168;28;20025;-70
2022/12/14 06:12:50;;;;;;;33.17;18.70;;;-1.20;99.90;;;;;;5051853;28;20031;-71
2022/12/14 06:15:15;;;;;;;31.85;17.25;;;-1.20;99.90;;;;;;5051924;28;20461;-70
2022/12/14 06:17:45;;;;;;;29.85;17.98;;;-1.10;99.90;;;;;;5052172;28;20049;-72
2022/12/14 06:20:12;;;;;;;35.38;19.75;;;-1.10;99.90;;;;;;5052052;28;20031;-70
2022/12/14 06:22:39;;;;;;;32.60;20.10;;;-1.10;99.90;;;;;;5050519;28;20034;-71
2022/12/14 06:25:05;;;;;;;33.45;19.70;;;-1.10;99.90;;;;;;5052089;28;20072;-71
2022/12/14 06:27:30;;;;;;;32.92;19.77;;;-1.10;99.90;;;;;;5052064;28;20055;-71
2022/12/14 06:29:57;;;;;;;34.25;18.50;;;-1.10;99.90;;;;;;5051551;28;20056;-69
2022/12/14 06:32:23;;;;;;;32.38;19.42;;;-1.10;99.90;;;;;;5052248;28;20466;-70
2022/12/14 06:34:49;;;;;;;31.20;18.00;;;-1.00;99.90;;;;;;5051903;28;20029;-70
2022/12/14 06:37:14;;;;;;;35.97;19.60;;;-1.00;99.90;;;;;;5051881;28;20147;-69
2022/12/14 06:39:40;;;;;;;34.40;19.35;;;-1.00;99.90;;;;;;5051474;28;20025;-69
2022/12/14 06:42:06;;;;;;;34.03;19.25;;;-1.00;99.90;;;;;;5051814;28;20025;-70
2022/12/14 06:44:31;;;;;;;35.05;19.73;;;-1.00;99.90;;;;;;5051844;28;20039;-70
2022/12/14 06:46:58;;;;;;;31.50;18.45;;;-1.00;99.90;;;;;;5051671;28;20448;-70
2022/12/14 06:49:24;;;;;;;36.03;19.35;;;-0.90;99.90;;;;;;5051547;28;20024;-70
2022/12/14 06:51:50;;;;;;;34.15;18.33;;;-0.90;99.90;;;;;;5050958;28;20120;-70
2022/12/14 06:54:17;;;;;;;33.50;19.50;;;-0.90;99.90;;;;;;5049175;28;20544;-70
2022/12/14 06:56:44;;;;;;;36.50;19.65;;;-0.90;99.90;;;;;;5051090;28;20054;-70
2022/12/14 06:59:10;;;;;;;31.27;17.60;;;-0.90;99.90;;;;;;5051545;28;20466;-70
2022/12/14 07:01:37;;;;;;;33.70;19.55;;;-0.90;99.90;;;;;;5051953;28;20112;-70
2022/12/14 07:04:04;;;;;;;35.58;18.35;;;-0.90;99.90;;;;;;5055390;28;20083;-70
2022/12/14 07:06:36;;;;;;;33.85;18.33;;;-0.90;99.90;;;;;;5055177;28;20469;-69
2022/12/14 07:09:03;;;;;;;34.13;18.58;;;-0.90;99.90;;;;;;5055388;28;20033;-70
2022/12/14 07:11:29;;;;;;;32.65;18.10;;;-0.90;99.90;;;;;;5056265;28;20428;-70
2022/12/14 07:13:56;;;;;;;33.42;18.27;;;-0.90;99.90;;;;;;5071044;28;20037;-70
2022/12/14 07:16:24;;;;;;;30.83;17.73;;;-0.90;99.90;;;;;;5055033;28;20029;-70
2022/12/14 07:18:50;;;;;;;31.83;18.30;;;-0.90;99.90;;;;;;5054232;28;20026;-70
2022/12/14 07:21:17;;;;;;;34.42;18.25;;;-0.90;99.90;;;;;;5054337;28;20430;-69
2022/12/14 07:23:45;;;;;;;33.55;17.73;;;-0.90;99.90;;;;;;5052534;28;20029;-70
2022/12/14 07:26:14;;;;;;;31.67;18.92;;;-0.90;99.90;;;;;;5054497;28;20036;-69
2022/12/14 07:28:41;;;;;;;32.75;17.90;;;-0.90;99.90;;;;;;5054238;28;20029;-68
2022/12/14 07:31:11;;;;;;;30.10;17.50;;;-0.90;99.90;;;;;;5054396;28;20056;-70
2022/12/14 07:33:37;;;;;;;31.02;17.95;;;-0.90;99.90;;;;;;5054192;28;20040;-72
2022/12/14 07:36:04;;;;;;;35.05;18.15;;;-0.90;99.90;;;;;;5054496;28;20041;-71
2022/12/14 07:38:30;;;;;;;31.70;18.77;;;-0.90;99.90;;;;;;5054671;28;20033;-70
2022/12/14 07:41:11;;;;;;;33.50;17.55;;;-0.90;99.90;;;;;;5053984;28;20025;-71
2022/12/14 07:43:38;;;;;;;31.65;17.30;;;-0.90;99.90;;;;;;5054748;28;20466;-69
2022/12/14 07:46:07;;;;;;;30.02;17.27;;;-0.80;99.90;;;;;;5054829;28;20061;-68
2022/12/14 07:48:33;;;;;;;32.22;17.75;;;-0.90;99.90;;;;;;5054273;28;20075;-69
2022/12/14 07:51:07;;;;;;;29.38;17.33;;;-0.90;99.90;;;;;;5054137;28;20330;-70
2022/12/14 07:53:34;;;;;;;31.63;18.08;;;-0.90;99.90;;;;;;5053196;28;20040;-70
2022/12/14 07:56:05;;;;;;;31.83;17.83;;;-0.90;99.90;;;;;;5054136;28;20029;-71
2022/12/14 07:58:32;;;;;;;30.92;18.38;;;-0.90;99.90;;;;;;5054330;28;20021;-70
2022/12/14 08:01:07;;;;;;;30.05;17.38;;;-0.90;99.90;;;;;;5053999;28;20033;-69
2022/12/14 08:03:33;;;;;;;27.70;17.05;;;-0.80;99.90;;;;;;5054022;28;20497;-70
2022/12/14 08:06:03;;;;;;;29.02;18.00;;;-0.80;99.90;;;;;;5053660;28;20025;-70
2022/12/14 08:08:29;;;;;;;28.27;17.08;;;-0.80;99.90;;;;;;5053933;28;20386;-69
2022/12/14 08:10:54;;;;;;;32.75;18.65;;;-0.80;99.90;;;;;;5053828;28;20025;-70
2022/12/14 08:13:20;;;;;;;29.65;18.05;;;-0.80;99.90;;;;;;5053486;28;20081;-69
2022/12/14 08:15:45;;;;;;;30.52;18.08;;;-0.70;99.90;;;;;;5051741;28;20029;-69
2022/12/14 08:18:11;;;;;;;34.33;16.95;;;-0.70;99.90;;;;;;5054200;28;20021;-69
2022/12/14 08:20:36;;;;;;;34.40;17.98;;;-0.70;99.90;;;;;;5053680;28;20021;-69
2022/12/14 08:23:02;;;;;;;27.98;16.92;;;-0.70;99.90;;;;;;5053759;28;20420;-69
2022/12/14 08:25:28;;;;;;;30.05;16.95;;;-0.70;99.90;;;;;;5053581;28;20377;-69
2022/12/14 08:27:54;;;;;;;29.40;16.92;;;-0.60;99.90;;;;;;5053694;28;20029;-69
2022/12/14 08:30:19;;;;;;;30.33;16.63;;;-0.60;99.90;;;;;;5053844;28;20062;-70
2022/12/14 08:32:45;;;;;;;31.58;17.20;;;-0.60;99.90;;;;;;5053032;28;20388;-69
2022/12/14 08:35:10;;;;;;;31.55;18.38;;;-0.60;99.90;;;;;;5053732;28;20041;-69
2022/12/14 08:37:36;;;;;;;34.88;18.83;;;-0.60;99.90;;;;;;5053607;28;20056;-70
2022/12/14 08:40:02;;;;;;;37.35;19.63;;;-0.60;99.90;;;;;;5052364;28;20039;-70
2022/12/14 08:42:28;;;;;;;33.08;18.17;;;-0.60;99.90;;;;;;5053516;28;20025;-70
2022/12/14 08:44:53;;;;;;;32.80;18.92;;;-0.60;99.90;;;;;;5053270;28;20033;-69
2022/12/14 08:47:19;;;;;;;33.05;19.13;;;-0.60;99.90;;;;;;5053346;28;20033;-71
2022/12/14 08:49:45;;;;;;;34.08;18.92;;;-0.50;99.90;;;;;;5052936;28;20027;-71
2022/12/14 08:52:10;;;;;;;30.15;17.83;;;-0.50;99.90;;;;;;5053320;28;20020;-70
2022/12/14 08:54:36;;;;;;;34.13;17.83;;;-0.50;99.90;;;;;;5053455;28;20396;-70
2022/12/14 08:57:03;;;;;;;32.45;18.17;;;-0.50;99.90;;;;;;5052612;28;20028;-71
2022/12/14 08:59:29;;;;;;;34.88;18.88;;;-0.50;99.90;;;;;;5053553;28;20044;-71
2022/12/14 09:01:54;;;;;;;34.50;18.58;;;-0.50;99.90;;;;;;5052939;28;20052;-71
2022/12/14 09:04:20;;;;;;;34.92;18.55;;;-0.50;99.90;;;;;;5053439;28;20021;-71
2022/12/14 09:06:45;;;;;;;35.35;18.95;;;-0.50;99.90;;;;;;5052753;28;20394;-72
2022/12/14 09:09:11;;;;;;;33.20;18.67;;;-0.50;99.90;;;;;;5052035;28;20049;-71
2022/12/14 09:11:37;;;;;;;30.30;17.50;;;-0.50;99.90;;;;;;5053460;28;20024;-72
2022/12/14 09:14:02;;;;;;;37.90;19.30;;;-0.50;99.90;;;;;;5052512;28;20420;-71
2022/12/14 09:16:28;;;;;;;29.23;17.38;;;-0.40;99.90;;;;;;5053170;28;20032;-71
2022/12/14 09:18:54;;;;;;;34.30;19.27;;;-0.40;99.90;;;;;;5052547;28;20028;-71
2022/12/14 09:21:21;;;;;;;36.30;19.27;;;-0.40;99.90;;;;;;5053214;28;20067;-71
2022/12/14 09:23:47;;;;;;;36.38;20.00;;;-0.40;99.90;;;;;;5052861;28;20432;-72
2022/12/14 09:26:18;;;;;;;35.78;19.35;;;-0.40;99.90;;;;;;5052840;28;20115;-70
2022/12/14 09:28:52;;;;;;;39.22;20.02;;;-0.40;99.90;;;;;;5052964;28;20369;-71
2022/12/14 09:31:20;;;;;;;36.30;19.33;;;-0.40;99.90;;;;;;5052213;28;20346;-71
2022/12/14 09:33:46;;;;;;;39.63;19.80;;;-0.30;99.90;;;;;;5052325;28;20060;-70
2022/12/14 09:36:20;;;;;;;33.50;19.42;;;-0.30;99.90;;;;;;5052101;28;20048;-70
2022/12/14 09:38:46;;;;;;;33.63;19.55;;;-0.30;99.90;;;;;;5052584;28;20021;-70
2022/12/14 09:41:24;;;;;;;33.10;19.40;;;-0.30;99.90;;;;;;5052829;28;20060;-71
2022/12/14 09:43:58;;;;;;;34.55;18.65;;;-0.30;99.90;;;;;;5052314;28;20095;-70
2022/12/14 09:46:53;;;;;;;33.90;18.98;;;-0.30;99.90;;;;;;5052954;28;20049;-69
2022/12/14 09:49:45;;;;;;;37.20;18.98;;;-0.30;99.90;;;;;;5052751;28;20021;-69
2022/12/14 09:52:24;;;;;;;33.28;18.85;;;-0.20;99.90;;;;;;5052247;28;20070;-71
2022/12/14 09:54:52;;;;;;;32.30;19.50;;;-0.20;99.90;;;;;;5052108;28;20021;-71
2022/12/14 09:57:36;;;;;;;35.50;18.63;;;-0.30;99.90;;;;;;5052847;28;20021;-70
2022/12/14 10:00:05;;;;;;;31.73;18.48;;;-0.20;99.90;;;;;;5052077;28;20021;-70
2022/12/14 10:02:55;;;;;;;40.03;19.48;;;-0.20;99.90;;;;;;5052461;28;20021;-70
2022/12/14 10:05:42;;;;;;;31.05;18.10;;;-0.10;99.90;;;;;;5052728;28;20406;-71
2022/12/14 10:08:26;;;;;;;35.60;18.42;;;-0.10;99.90;;;;;;5052143;28;20021;-70
2022/12/14 10:11:15;;;;;;;30.10;18.63;;;-0.10;99.90;;;;;;5052098;28;20033;-70
2022/12/14 10:13:58;;;;;;;33.90;18.88;;;0.00;99.90;;;;;;5032457;28;20037;-71
2022/12/14 10:16:30;;;;;;;36.95;19.52;;;-0.10;99.90;;;;;;5052389;28;20017;-71
2022/12/14 10:19:15;;;;;;;34.83;19.63;;;-0.10;99.90;;;;;;5051596;28;20032;-71
2022/12/14 10:21:47;;;;;;;35.17;18.67;;;-0.10;99.90;;;;;;5052347;28;20029;-70
2022/12/14 10:24:36;;;;;;;31.45;18.83;;;-0.10;99.90;;;;;;5051822;28;20037;-70
2022/12/14 10:27:05;;;;;;;34.38;19.80;;;-0.10;99.90;;;;;;5051392;28;20032;-69
2022/12/14 10:29:37;;;;;;;35.72;20.20;;;-0.10;99.90;;;;;;5052218;28;20017;-70
2022/12/14 10:32:24;;;;;;;33.40;19.90;;;-0.10;99.90;;;;;;5051695;28;20120;-70
2022/12/14 10:34:50;;;;;;;36.05;20.48;;;0.00;99.90;;;;;;5052026;28;20040;-71
2022/12/14 10:37:27;;;;;;;37.30;20.35;;;0.00;99.90;;;;;;5053509;28;20041;-71
2022/12/14 10:40:19;;;;;;;36.78;19.95;;;0.00;99.90;;;;;;5055763;28;20021;-70
2022/12/14 10:43:16;;;;;;;33.20;20.35;;;0.00;99.90;;;;;;5056280;28;20021;-71
2022/12/14 10:46:08;;;;;;;39.75;20.50;;;0.00;99.90;;;;;;5056052;28;20025;-70
2022/12/14 10:48:33;;;;;;;36.45;20.80;;;0.00;99.90;;;;;;5055861;28;20465;-71
2022/12/14 10:51:08;;;;;;;35.13;20.55;;;0.00;99.90;;;;;;5055435;28;20102;-71
2022/12/14 10:53:49;;;;;;;41.55;22.15;;;0.00;99.90;;;;;;5055081;28;20450;-71
2022/12/14 10:56:34;;;;;;;39.67;22.02;;;0.10;99.90;;;;;;5055210;28;20032;-70
2022/12/14 10:59:33;;;;;;;41.10;22.67;;;0.10;99.90;;;;;;5055377;28;20036;-70
2022/12/14 11:02:04;;;;;;;38.03;21.73;;;0.20;99.90;;;;;;5046940;28;20040;-71
2022/12/14 11:04:32;;;;;;;;;;;0.20;99.90;;;;;;5055858;28;20052;-70
2022/12/14 11:07:07;;;;;;;34.38;20.70;;;0.20;99.90;;;;;;5054940;28;19900;-71
2022/12/14 11:09:34;;;;;;;38.67;22.52;;;0.20;99.90;;;;;;5055424;28;20063;-71
2022/12/14 11:12:04;;;;;;;38.00;20.98;;;0.20;99.90;;;;;;5055041;28;20111;-70
2022/12/14 11:14:31;;;;;;;41.45;22.40;;;0.20;99.90;;;;;;5055275;28;20036;-71
2022/12/14 11:16:57;;;;;;;41.92;22.15;;;0.10;99.90;;;;;;5055008;28;20120;-71
2022/12/14 11:19:25;;;;;;;40.72;22.38;;;0.20;99.90;;;;;;5053929;28;20106;-71
2022/12/14 11:22:10;;;;;;;39.60;22.13;;;0.20;99.90;;;;;;5055172;28;20158;-70
2022/12/14 11:24:44;;;;;;;32.80;20.70;;;0.20;99.90;;;;;;5055326;28;20035;-70
2022/12/14 11:27:11;;;;;;;38.78;21.85;;;0.20;99.90;;;;;;5054866;28;20454;-71
2022/12/14 11:29:38;;;;;;;39.67;21.75;;;0.30;99.90;;;;;;5053280;28;20025;-70
2022/12/14 11:32:05;;;;;;;38.75;22.63;;;0.30;99.90;;;;;;5053977;28;20031;-71
2022/12/14 11:34:38;;;;;;;37.47;21.52;;;0.30;99.90;;;;;;5054690;28;20057;-70
2022/12/14 11:37:25;;;;;;;38.60;22.20;;;0.30;99.90;;;;;;5053744;28;20067;-71
2022/12/14 11:39:59;;;;;;;40.05;20.45;;;0.20;99.90;;;;;;5054738;28;20024;-70
2022/12/14 11:42:26;;;;;;;38.20;22.30;;;0.30;99.90;;;;;;5054928;28;20029;-71
2022/12/14 11:44:53;;;;;;;36.35;22.00;;;0.30;99.90;;;;;;5054814;28;20036;-70
2022/12/14 11:47:24;;;;;;;40.20;22.13;;;0.30;99.90;;;;;;5054308;28;20119;-72
2022/12/14 11:49:56;;;;;;;38.47;22.02;;;0.30;99.90;;;;;;5053906;28;20053;-70
2022/12/14 11:52:38;;;;;;;38.40;22.83;;;0.40;99.90;;;;;;5054774;28;20082;-70
2022/12/14 11:55:12;;;;;;;36.40;21.77;;;0.40;99.90;;;;;;5053803;28;20056;-72
2022/12/14 11:57:52;;;;;;;40.10;22.65;;;0.40;99.90;;;;;;5054758;28;20095;-70
2022/12/14 12:00:38;;;;;;;38.27;22.30;;;0.40;99.90;;;;;;5054174;28;20032;-71
2022/12/14 12:03:05;;;;;;;40.90;21.92;;;0.50;99.90;;;;;;5054364;28;20016;-70
2022/12/14 12:05:32;;;;;;;43.15;24.00;;;0.40;99.90;;;;;;5054355;28;20021;-70
2022/12/14 12:08:01;;;;;;;43.80;22.23;;;0.40;99.90;;;;;;5054031;28;20025;-73
2022/12/14 12:10:38;;;;;;;42.08;22.67;;;0.40;99.90;;;;;;5054299;28;20078;-71
2022/12/14 12:13:06;;;;;;;41.85;23.63;;;0.50;99.90;;;;;;5053547;28;20458;-71
2022/12/14 12:15:41;;;;;;;39.63;22.83;;;0.50;99.90;;;;;;5054333;28;20051;-70
2022/12/14 12:18:20;;;;;;;39.08;22.48;;;0.50;99.90;;;;;;5053830;28;20013;-71
2022/12/14 12:20:48;;;;;;;41.25;22.90;;;0.50;99.90;;;;;;5054098;28;20021;-70
2022/12/14 12:23:23;;;;;;;39.65;22.75;;;0.40;99.90;;;;;;5054038;28;20055;-71
2022/12/14 12:25:51;;;;;;;37.35;21.95;;;0.40;99.90;;;;;;5053987;28;20028;-71
2022/12/14 12:28:26;;;;;;;38.67;22.25;;;0.40;99.90;;;;;;5053798;28;20033;-72
2022/12/14 12:30:59;;;;;;;43.58;22.85;;;0.40;99.90;;;;;;5054071;28;20043;-71
2022/12/14 12:33:32;;;;;;;37.38;22.40;;;0.50;99.90;;;;;;5054075;28;20087;-70
2022/12/14 12:36:03;;;;;;;42.30;22.27;;;0.50;99.90;;;;;;5053684;28;20131;-71
2022/12/14 12:38:42;;;;;;;38.63;21.42;;;0.50;99.90;;;;;;5053983;28;20017;-70
2022/12/14 12:41:10;;;;;;;39.30;21.67;;;0.50;99.90;;;;;;5053625;28;20017;-70
2022/12/14 12:43:45;;;;;;;40.92;22.92;;;0.50;99.90;;;;;;5054075;28;20104;-71
2022/12/14 12:46:16;;;;;;;39.97;22.30;;;0.50;99.90;;;;;;5053675;28;20021;-71
2022/12/14 12:49:01;;;;;;;38.72;22.40;;;0.50;99.90;;;;;;5053813;28;20100;-71
2022/12/14 12:51:38;;;;;;;44.25;21.88;;;0.50;99.90;;;;;;5053959;28;20078;-71
2022/12/14 12:54:09;;;;;;;39.75;22.15;;;0.50;99.90;;;;;;5053132;28;20028;-71
2022/12/14 12:56:51;;;;;;;41.75;23.63;;;0.50;99.90;;;;;;5053564;28;20017;-71
2022/12/14 12:59:25;;;;;;;40.38;22.55;;;0.50;99.90;;;;;;5052868;28;20028;-71
2022/12/14 13:01:55;;;;;;;38.75;23.25;;;0.50;99.90;;;;;;5053513;28;20351;-71
2022/12/14 13:04:32;;;;;;;39.70;23.27;;;0.50;99.90;;;;;;5051649;28;20029;-70
2022/12/14 13:07:07;;;;;;;39.05;21.85;;;0.40;99.90;;;;;;5053265;28;20048;-71
2022/12/14 13:09:43;;;;;;;41.50;23.40;;;0.50;99.90;;;;;;5053308;28;20021;-71